sensor_id;sensor_type;location;lat;lon;timestamp;pressure;altitude;pressure_sealevel;temperature;humidity
70976;BME280;58635;51.198;6.010;2024-03-02T00:00:05;99765.75;;;12.48;49.31
70976;BME280;58635;51.198;6.010;2024-03-02T00:02:45;99761.38;;;12.49;49.30
70976;BME280;58635;51.198;6.010;2024-03-02T00:05:12;99755.94;;;12.50;49.29
70976;BME280;58635;51.198;6.010;2024-03-02T00:07:43;99756.72;;;12.51;49.27
70976;BME280;58635;51.198;6.010;2024-03-02T00:10:10;99751.84;;;12.54;49.18
70976;BME280;58635;51.198;6.010;2024-03-02T00:12:37;99761.00;;;12.57;49.25
70976;BME280;58635;51.198;6.010;2024-03-02T00:15:51;99741.84;;;12.58;49.02
70976;BME280;58635;51.198;6.010;2024-03-02T00:17:54;99748.59;;;12.59;49.10
70976;BME280;58635;51.198;6.010;2024-03-02T00:20:22;99743.97;;;12.61;48.99
70976;BME280;58635;51.198;6.010;2024-03-02T00:22:48;99743.72;;;12.63;49.05
70976;BME280;58635;51.198;6.010;2024-03-02T00:25:13;99751.03;;;12.66;48.95
70976;BME280;58635;51.198;6.010;2024-03-02T00:27:39;99745.63;;;12.67;48.98
70976;BME280;58635;51.198;6.010;2024-03-02T00:33:07;99747.75;;;12.70;48.89
70976;BME280;58635;51.198;6.010;2024-03-02T00:35:33;99745.72;;;12.72;49.02
70976;BME280;58635;51.198;6.010;2024-03-02T00:37:58;99751.22;;;12.76;48.94
70976;BME280;58635;51.198;6.010;2024-03-02T00:40:29;99751.78;;;12.78;48.77
70976;BME280;58635;51.198;6.010;2024-03-02T00:42:55;99746.38;;;12.79;48.97
70976;BME280;58635;51.198;6.010;2024-03-02T00:45:21;99749.75;;;12.80;48.84
70976;BME280;58635;51.198;6.010;2024-03-02T00:47:46;99745.13;;;12.82;48.49
70976;BME280;58635;51.198;6.010;2024-03-02T00:50:13;99744.09;;;12.83;48.80
70976;BME280;58635;51.198;6.010;2024-03-02T00:52:38;99745.66;;;12.84;48.78
70976;BME280;58635;51.198;6.010;2024-03-02T00:55:04;99754.00;;;12.86;48.94
70976;BME280;58635;51.198;6.010;2024-03-02T00:57:33;99757.69;;;12.90;48.56
70976;BME280;58635;51.198;6.010;2024-03-02T00:59:59;99753.53;;;12.89;48.61
70976;BME280;58635;51.198;6.010;2024-03-02T01:02:25;99763.91;;;12.89;48.61
70976;BME280;58635;51.198;6.010;2024-03-02T01:04:50;99766.28;;;12.91;48.56
70976;BME280;58635;51.198;6.010;2024-03-02T01:07:15;99770.22;;;12.93;48.72
70976;BME280;58635;51.198;6.010;2024-03-02T01:09:41;99772.81;;;12.93;48.68
70976;BME280;58635;51.198;6.010;2024-03-02T01:12:06;99784.53;;;12.96;48.77
70976;BME280;58635;51.198;6.010;2024-03-02T01:14:32;99780.91;;;12.97;48.70
70976;BME280;58635;51.198;6.010;2024-03-02T01:16:57;99794.44;;;12.99;48.77
70976;BME280;58635;51.198;6.010;2024-03-02T01:19:23;99797.59;;;13.01;48.43
70976;BME280;58635;51.198;6.010;2024-03-02T01:21:48;99804.59;;;13.00;48.73
70976;BME280;58635;51.198;6.010;2024-03-02T01:24:15;99821.53;;;13.03;48.59
70976;BME280;58635;51.198;6.010;2024-03-02T01:26:41;99846.22;;;13.05;49.34
70976;BME280;58635;51.198;6.010;2024-03-02T01:29:07;99870.28;;;13.01;50.83
70976;BME280;58635;51.198;6.010;2024-03-02T01:31:33;99852.94;;;12.89;51.86
70976;BME280;58635;51.198;6.010;2024-03-02T01:33:58;99865.72;;;12.79;52.78
70976;BME280;58635;51.198;6.010;2024-03-02T01:36:23;99864.50;;;12.70;53.88
70976;BME280;58635;51.198;6.010;2024-03-02T01:38:49;99867.13;;;12.58;54.04
70976;BME280;58635;51.198;6.010;2024-03-02T01:41:15;99868.25;;;12.51;54.67
70976;BME280;58635;51.198;6.010;2024-03-02T01:43:40;99876.72;;;12.46;55.26
70976;BME280;58635;51.198;6.010;2024-03-02T01:46:05;99882.25;;;12.38;55.34
70976;BME280;58635;51.198;6.010;2024-03-02T01:48:31;99881.69;;;12.24;55.51
70976;BME280;58635;51.198;6.010;2024-03-02T01:50:56;99891.16;;;12.19;55.91
70976;BME280;58635;51.198;6.010;2024-03-02T01:53:22;99873.38;;;12.11;56.23
70976;BME280;58635;51.198;6.010;2024-03-02T01:55:48;99868.41;;;12.09;56.27
70976;BME280;58635;51.198;6.010;2024-03-02T01:58:14;99865.22;;;12.07;56.04
70976;BME280;58635;51.198;6.010;2024-03-02T02:00:39;99858.94;;;12.03;56.07
70976;BME280;58635;51.198;6.010;2024-03-02T02:03:05;99868.03;;;12.06;56.11
70976;BME280;58635;51.198;6.010;2024-03-02T02:05:30;99867.03;;;12.07;55.89
70976;BME280;58635;51.198;6.010;2024-03-02T02:07:56;99856.47;;;12.08;55.74
70976;BME280;58635;51.198;6.010;2024-03-02T02:10:23;99854.19;;;12.12;55.59
70976;BME280;58635;51.198;6.010;2024-03-02T02:12:49;99856.00;;;12.11;55.72
70976;BME280;58635;51.198;6.010;2024-03-02T02:15:28;99864.56;;;12.12;55.84
70976;BME280;58635;51.198;6.010;2024-03-02T02:17:55;99863.56;;;12.13;55.70
70976;BME280;58635;51.198;6.010;2024-03-02T02:20:20;99856.78;;;12.12;55.90
70976;BME280;58635;51.198;6.010;2024-03-02T02:22:58;99855.44;;;12.09;55.66
70976;BME280;58635;51.198;6.010;2024-03-02T02:25:24;99854.84;;;12.07;55.64
70976;BME280;58635;51.198;6.010;2024-03-02T02:27:50;99847.53;;;12.04;55.41
70976;BME280;58635;51.198;6.010;2024-03-02T02:30:25;99846.75;;;12.04;55.49
70976;BME280;58635;51.198;6.010;2024-03-02T02:32:52;99846.44;;;12.00;55.32
70976;BME280;58635;51.198;6.010;2024-03-02T02:35:18;99851.06;;;11.98;55.23
70976;BME280;58635;51.198;6.010;2024-03-02T02:37:45;99846.09;;;11.96;55.39
70976;BME280;58635;51.198;6.010;2024-03-02T02:40:12;99843.16;;;11.93;55.19
70976;BME280;58635;51.198;6.010;2024-03-02T02:42:38;99842.34;;;11.92;55.18
70976;BME280;58635;51.198;6.010;2024-03-02T02:45:05;99832.22;;;11.91;55.00
70976;BME280;58635;51.198;6.010;2024-03-02T02:47:30;99833.69;;;11.87;54.95
70976;BME280;58635;51.198;6.010;2024-03-02T02:49:55;99837.28;;;11.86;54.74
70976;BME280;58635;51.198;6.010;2024-03-02T02:52:21;99822.19;;;11.83;54.69
70976;BME280;58635;51.198;6.010;2024-03-02T02:54:46;99832.22;;;11.79;54.77
70976;BME280;58635;51.198;6.010;2024-03-02T02:57:12;99841.75;;;11.79;54.55
70976;BME280;58635;51.198;6.010;2024-03-02T02:59:37;99838.59;;;11.77;54.65
70976;BME280;58635;51.198;6.010;2024-03-02T03:02:02;99830.84;;;11.77;54.68
70976;BME280;58635;51.198;6.010;2024-03-02T03:04:28;99830.03;;;11.76;54.81
70976;BME280;58635;51.198;6.010;2024-03-02T03:06:53;99822.72;;;11.73;54.65
70976;BME280;58635;51.198;6.010;2024-03-02T03:09:18;99833.50;;;11.70;54.93
70976;BME280;58635;51.198;6.010;2024-03-02T03:11:44;99828.34;;;11.70;54.96
70976;BME280;58635;51.198;6.010;2024-03-02T03:14:09;99825.41;;;11.66;54.94
70976;BME280;58635;51.198;6.010;2024-03-02T03:16:34;99828.47;;;11.63;54.55
70976;BME280;58635;51.198;6.010;2024-03-02T03:19:00;99818.88;;;11.64;55.01
70976;BME280;58635;51.198;6.010;2024-03-02T03:21:25;99823.06;;;11.65;55.02
70976;BME280;58635;51.198;6.010;2024-03-02T03:23:50;99838.81;;;11.63;54.83
70976;BME280;58635;51.198;6.010;2024-03-02T03:26:16;99836.44;;;11.62;54.88
70976;BME280;58635;51.198;6.010;2024-03-02T03:28:41;99842.66;;;11.61;54.78
70976;BME280;58635;51.198;6.010;2024-03-02T03:31:07;99843.63;;;11.60;55.13
70976;BME280;58635;51.198;6.010;2024-03-02T03:33:32;99834.09;;;11.60;55.05
70976;BME280;58635;51.198;6.010;2024-03-02T03:35:57;99841.63;;;11.62;54.95
70976;BME280;58635;51.198;6.010;2024-03-02T03:38:23;99832.28;;;11.61;55.05
70976;BME280;58635;51.198;6.010;2024-03-02T03:40:48;99831.28;;;11.62;55.02
70976;BME280;58635;51.198;6.010;2024-03-02T03:43:13;99829.47;;;11.62;55.03
70976;BME280;58635;51.198;6.010;2024-03-02T03:45:39;99835.44;;;11.63;55.13
70976;BME280;58635;51.198;6.010;2024-03-02T03:48:04;99831.03;;;11.63;55.01
70976;BME280;58635;51.198;6.010;2024-03-02T03:50:30;99830.25;;;11.63;55.24
70976;BME280;58635;51.198;6.010;2024-03-02T03:52:55;99820.13;;;11.61;55.38
70976;BME280;58635;51.198;6.010;2024-03-02T03:55:20;99833.06;;;11.61;55.14
70976;BME280;58635;51.198;6.010;2024-03-02T03:57:46;99836.69;;;11.60;55.15
70976;BME280;58635;51.198;6.010;2024-03-02T04:00:11;99834.09;;;11.60;55.23
70976;BME280;58635;51.198;6.010;2024-03-02T04:02:37;99850.41;;;11.61;55.49
70976;BME280;58635;51.198;6.010;2024-03-02T04:05:03;99852.78;;;11.62;55.36
70976;BME280;58635;51.198;6.010;2024-03-02T04:07:30;99854.91;;;11.65;55.23
70976;BME280;58635;51.198;6.010;2024-03-02T04:09:55;99862.47;;;11.67;55.18
70976;BME280;58635;51.198;6.010;2024-03-02T04:12:21;99852.09;;;11.67;55.27
70976;BME280;58635;51.198;6.010;2024-03-02T04:14:47;99861.44;;;11.68;55.43
70976;BME280;58635;51.198;6.010;2024-03-02T04:17:12;99867.19;;;11.70;55.14
70976;BME280;58635;51.198;6.010;2024-03-02T04:19:38;99873.94;;;11.71;55.28
70976;BME280;58635;51.198;6.010;2024-03-02T04:22:04;99868.34;;;11.74;55.27
70976;BME280;58635;51.198;6.010;2024-03-02T04:24:29;99865.53;;;11.76;55.33
70976;BME280;58635;51.198;6.010;2024-03-02T04:26:55;99856.31;;;11.80;55.30
70976;BME280;58635;51.198;6.010;2024-03-02T04:29:20;99854.72;;;11.79;55.21
70976;BME280;58635;51.198;6.010;2024-03-02T04:31:46;99859.47;;;11.82;55.33
70976;BME280;58635;51.198;6.010;2024-03-02T04:34:11;99855.84;;;11.83;55.25
70976;BME280;58635;51.198;6.010;2024-03-02T04:36:36;99865.22;;;11.84;55.47
70976;BME280;58635;51.198;6.010;2024-03-02T04:39:02;99867.81;;;11.84;55.67
70976;BME280;58635;51.198;6.010;2024-03-02T04:41:27;99856.09;;;11.81;55.45
70976;BME280;58635;51.198;6.010;2024-03-02T04:43:53;99859.09;;;11.78;55.82
70976;BME280;58635;51.198;6.010;2024-03-02T04:46:18;99866.88;;;11.78;55.86
70976;BME280;58635;51.198;6.010;2024-03-02T04:48:43;99860.91;;;11.78;55.96
70976;BME280;58635;51.198;6.010;2024-03-02T04:51:09;99859.34;;;11.77;55.99
70976;BME280;58635;51.198;6.010;2024-03-02T04:53:35;99857.75;;;11.76;56.25
70976;BME280;58635;51.198;6.010;2024-03-02T04:56:00;99854.16;;;11.77;56.42
70976;BME280;58635;51.198;6.010;2024-03-02T04:58:44;99860.56;;;11.74;56.39
70976;BME280;58635;51.198;6.010;2024-03-02T05:01:09;99868.56;;;11.73;56.21
70976;BME280;58635;51.198;6.010;2024-03-02T05:03:35;99859.19;;;11.71;56.09
70976;BME280;58635;51.198;6.010;2024-03-02T05:06:01;99861.00;;;11.71;56.12
70976;BME280;58635;51.198;6.010;2024-03-02T05:08:26;99851.41;;;11.71;56.17
70976;BME280;58635;51.198;6.010;2024-03-02T05:10:51;99852.25;;;11.72;55.88
70976;BME280;58635;51.198;6.010;2024-03-02T05:13:17;99860.78;;;11.73;56.10
70976;BME280;58635;51.198;6.010;2024-03-02T05:15:42;99864.19;;;11.73;55.92
70976;BME280;58635;51.198;6.010;2024-03-02T05:18:08;99866.19;;;11.71;56.04
70976;BME280;58635;51.198;6.010;2024-03-02T05:20:34;99862.00;;;11.70;56.04
70976;BME280;58635;51.198;6.010;2024-03-02T05:22:59;99866.41;;;11.69;56.13
70976;BME280;58635;51.198;6.010;2024-03-02T05:25:25;99865.38;;;11.70;56.02
70976;BME280;58635;51.198;6.010;2024-03-02T05:27:50;99879.13;;;11.71;56.15
70976;BME280;58635;51.198;6.010;2024-03-02T05:30:16;99878.34;;;11.70;56.06
70976;BME280;58635;51.198;6.010;2024-03-02T05:32:41;99881.72;;;11.71;55.98
70976;BME280;58635;51.198;6.010;2024-03-02T05:35:07;99873.16;;;11.70;56.15
70976;BME280;58635;51.198;6.010;2024-03-02T05:37:33;99880.13;;;11.70;55.99
70976;BME280;58635;51.198;6.010;2024-03-02T05:39:59;99877.78;;;11.68;56.18
70976;BME280;58635;51.198;6.010;2024-03-02T05:42:24;99880.59;;;11.67;56.19
70976;BME280;58635;51.198;6.010;2024-03-02T05:44:50;99877.78;;;11.68;56.26
70976;BME280;58635;51.198;6.010;2024-03-02T05:47:15;99880.38;;;11.68;56.29
70976;BME280;58635;51.198;6.010;2024-03-02T05:49:40;99879.13;;;11.71;55.98
70976;BME280;58635;51.198;6.010;2024-03-02T05:52:06;99873.16;;;11.70;55.98
70976;BME280;58635;51.198;6.010;2024-03-02T05:54:32;99878.34;;;11.70;55.87
70976;BME280;58635;51.198;6.010;2024-03-02T05:56:57;99883.75;;;11.69;55.89
70976;BME280;58635;51.198;6.010;2024-03-02T05:59:40;99874.72;;;11.60;56.03
70976;BME280;58635;51.198;6.010;2024-03-02T06:02:06;99886.22;;;11.64;55.75
70976;BME280;58635;51.198;6.010;2024-03-02T06:04:31;99897.38;;;11.64;55.59
70976;BME280;58635;51.198;6.010;2024-03-02T06:06:56;99896.59;;;11.64;55.57
70976;BME280;58635;51.198;6.010;2024-03-02T06:09:22;99902.56;;;11.64;55.74
70976;BME280;58635;51.198;6.010;2024-03-02T06:11:49;99901.75;;;11.64;55.32
70976;BME280;58635;51.198;6.010;2024-03-02T06:14:15;99905.38;;;11.63;55.54
70976;BME280;58635;51.198;6.010;2024-03-02T06:16:41;99912.56;;;11.61;55.04
70976;BME280;58635;51.198;6.010;2024-03-02T06:19:07;99911.78;;;11.60;54.97
70976;BME280;58635;51.198;6.010;2024-03-02T06:21:32;99906.81;;;11.59;54.91
70976;BME280;58635;51.198;6.010;2024-03-02T06:23:57;99905.44;;;11.56;54.94
70976;BME280;58635;51.198;6.010;2024-03-02T06:26:23;99914.00;;;11.57;54.55
70976;BME280;58635;51.198;6.010;2024-03-02T06:28:48;99916.81;;;11.55;54.64
70976;BME280;58635;51.198;6.010;2024-03-02T06:31:13;99921.44;;;11.53;54.70
70976;BME280;58635;51.198;6.010;2024-03-02T06:33:39;99923.00;;;11.54;54.61
70976;BME280;58635;51.198;6.010;2024-03-02T06:36:05;99919.63;;;11.54;54.55
70976;BME280;58635;51.198;6.010;2024-03-02T06:38:33;99923.47;;;11.51;54.36
70976;BME280;58635;51.198;6.010;2024-03-02T06:40:59;99929.66;;;11.50;54.12
70976;BME280;58635;51.198;6.010;2024-03-02T06:43:24;99931.66;;;11.48;54.33
70976;BME280;58635;51.198;6.010;2024-03-02T06:45:50;99936.63;;;11.50;54.14
70976;BME280;58635;51.198;6.010;2024-03-02T06:48:16;99944.41;;;11.50;54.05
70976;BME280;58635;51.198;6.010;2024-03-02T06:50:46;99942.81;;;11.49;54.12
70976;BME280;58635;51.198;6.010;2024-03-02T06:53:11;99939.41;;;11.48;53.97
70976;BME280;58635;51.198;6.010;2024-03-02T06:55:37;99944.59;;;11.48;53.90
70976;BME280;58635;51.198;6.010;2024-03-02T06:58:02;99948.00;;;11.49;53.92
70976;BME280;58635;51.198;6.010;2024-03-02T07:00:28;99946.84;;;11.45;53.45
70976;BME280;58635;51.198;6.010;2024-03-02T07:02:54;99946.28;;;11.42;53.50
70976;BME280;58635;51.198;6.010;2024-03-02T07:05:19;99948.53;;;11.39;53.38
70976;BME280;58635;51.198;6.010;2024-03-02T07:07:46;99952.69;;;11.40;53.34
70976;BME280;58635;51.198;6.010;2024-03-02T07:10:11;99952.69;;;11.40;53.51
70976;BME280;58635;51.198;6.010;2024-03-02T07:12:36;99956.06;;;11.40;53.47
70976;BME280;58635;51.198;6.010;2024-03-02T07:15:03;99958.88;;;11.39;53.13
70976;BME280;58635;51.198;6.010;2024-03-02T07:17:29;99959.66;;;11.39;53.34
70976;BME280;58635;51.198;6.010;2024-03-02T07:19:54;99957.06;;;11.39;53.36
70976;BME280;58635;51.198;6.010;2024-03-02T07:22:20;99967.78;;;11.43;53.30
70976;BME280;58635;51.198;6.010;2024-03-02T07:24:45;99968.13;;;11.47;53.24
70976;BME280;58635;51.198;6.010;2024-03-02T07:27:11;99973.44;;;11.52;53.16
70976;BME280;58635;51.198;6.010;2024-03-02T07:29:37;99971.78;;;11.57;53.21
70976;BME280;58635;51.198;6.010;2024-03-02T07:32:03;99971.69;;;11.64;53.09
70976;BME280;58635;51.198;6.010;2024-03-02T07:34:28;99970.00;;;11.69;52.87
70976;BME280;58635;51.198;6.010;2024-03-02T07:36:54;99978.94;;;11.74;52.78
70976;BME280;58635;51.198;6.010;2024-03-02T07:39:20;99977.38;;;11.73;52.59
70976;BME280;58635;51.198;6.010;2024-03-02T07:41:46;99980.06;;;11.78;52.55
70976;BME280;58635;51.198;6.010;2024-03-02T07:44:11;99983.25;;;11.80;52.61
70976;BME280;58635;51.198;6.010;2024-03-02T07:46:43;99979.44;;;11.82;52.58
70976;BME280;58635;51.198;6.010;2024-03-02T07:49:08;99976.75;;;11.89;52.88
70976;BME280;58635;51.198;6.010;2024-03-02T07:51:34;99990.63;;;11.94;52.48
70976;BME280;58635;51.198;6.010;2024-03-02T07:53:59;99988.97;;;12.00;52.52
70976;BME280;58635;51.198;6.010;2024-03-02T07:56:24;99992.22;;;12.07;52.27
70976;BME280;58635;51.198;6.010;2024-03-02T07:58:50;99985.16;;;12.14;52.18
70976;BME280;58635;51.198;6.010;2024-03-02T08:01:15;99983.50;;;12.20;51.93
70976;BME280;58635;51.198;6.010;2024-03-02T08:03:42;99992.16;;;12.25;51.89
70976;BME280;58635;51.198;6.010;2024-03-02T08:06:08;99989.69;;;12.30;51.96
70976;BME280;58635;51.198;6.010;2024-03-02T08:08:33;99996.13;;;12.40;51.93
70976;BME280;58635;51.198;6.010;2024-03-02T08:10:59;99987.88;;;12.43;51.60
70976;BME280;58635;51.198;6.010;2024-03-02T08:13:24;99989.81;;;12.47;51.68
70976;BME280;58635;51.198;6.010;2024-03-02T08:15:49;99983.41;;;12.50;51.25
70976;BME280;58635;51.198;6.010;2024-03-02T08:18:15;99994.88;;;12.54;51.37
70976;BME280;58635;51.198;6.010;2024-03-02T08:20:40;99983.53;;;12.55;51.44
70976;BME280;58635;51.198;6.010;2024-03-02T08:23:06;99989.50;;;12.55;51.44
70976;BME280;58635;51.198;6.010;2024-03-02T08:25:32;99983.28;;;12.56;51.16
70976;BME280;58635;51.198;6.010;2024-03-02T08:27:58;99978.09;;;12.56;51.11
70976;BME280;58635;51.198;6.010;2024-03-02T08:30:23;99982.06;;;12.59;50.92
70976;BME280;58635;51.198;6.010;2024-03-02T08:32:48;99982.84;;;12.59;51.01
70976;BME280;58635;51.198;6.010;2024-03-02T08:35:14;99987.34;;;12.64;51.04
70976;BME280;58635;51.198;6.010;2024-03-02T08:37:41;99980.69;;;12.68;50.85
70976;BME280;58635;51.198;6.010;2024-03-02T08:40:08;99970.88;;;12.70;50.64
70976;BME280;58635;51.198;6.010;2024-03-02T08:42:33;99976.84;;;12.71;50.68
70976;BME280;58635;51.198;6.010;2024-03-02T08:45:00;99982.38;;;12.74;50.84
70976;BME280;58635;51.198;6.010;2024-03-02T08:47:29;99979.31;;;12.77;50.60
70976;BME280;58635;51.198;6.010;2024-03-02T08:49:54;99984.75;;;12.76;50.58
70976;BME280;58635;51.198;6.010;2024-03-02T08:52:19;99987.09;;;12.77;50.52
70976;BME280;58635;51.198;6.010;2024-03-02T08:54:44;99993.88;;;12.78;50.48
70976;BME280;58635;51.198;6.010;2024-03-02T08:57:10;100000.66;;;12.79;50.27
70976;BME280;58635;51.198;6.010;2024-03-02T08:59:36;99995.81;;;12.83;50.42
70976;BME280;58635;51.198;6.010;2024-03-02T09:02:01;99991.50;;;12.88;50.14
70976;BME280;58635;51.198;6.010;2024-03-02T09:04:27;99999.72;;;12.97;49.95
70976;BME280;58635;51.198;6.010;2024-03-02T09:06:53;99994.66;;;13.02;49.72
70976;BME280;58635;51.198;6.010;2024-03-02T09:09:18;99986.66;;;13.04;49.74
70976;BME280;58635;51.198;6.010;2024-03-02T09:11:45;99978.94;;;13.09;49.45
70976;BME280;58635;51.198;6.010;2024-03-02T09:14:11;99976.34;;;13.09;49.01
70976;BME280;58635;51.198;6.010;2024-03-02T09:16:36;99983.91;;;13.10;49.22
70976;BME280;58635;51.198;6.010;2024-03-02T09:19:02;99972.28;;;13.13;48.63
70976;BME280;58635;51.198;6.010;2024-03-02T09:21:27;99976.44;;;13.14;48.48
70976;BME280;58635;51.198;6.010;2024-03-02T09:23:55;99978.84;;;13.15;48.50
70976;BME280;58635;51.198;6.010;2024-03-02T09:26:20;99978.59;;;13.17;48.42
70976;BME280;58635;51.198;6.010;2024-03-02T09:28:45;99985.25;;;13.25;48.56
70976;BME280;58635;51.198;6.010;2024-03-02T09:31:11;99986.72;;;13.32;48.48
70976;BME280;58635;51.198;6.010;2024-03-02T09:33:37;99987.81;;;13.36;48.16
70976;BME280;58635;51.198;6.010;2024-03-02T09:36:04;99996.97;;;13.39;47.25
70976;BME280;58635;51.198;6.010;2024-03-02T09:38:32;99989.41;;;13.37;47.17
70976;BME280;58635;51.198;6.010;2024-03-02T09:40:58;99985.03;;;13.38;47.15
70976;BME280;58635;51.198;6.010;2024-03-02T09:43:24;99974.94;;;13.41;47.39
70976;BME280;58635;51.198;6.010;2024-03-02T09:45:50;99983.84;;;13.45;47.22
70976;BME280;58635;51.198;6.010;2024-03-02T09:48:16;99977.75;;;13.52;47.01
70976;BME280;58635;51.198;6.010;2024-03-02T09:50:43;99972.84;;;13.55;46.62
70976;BME280;58635;51.198;6.010;2024-03-02T09:53:10;99965.38;;;13.59;46.51
70976;BME280;58635;51.198;6.010;2024-03-02T09:55:36;99974.63;;;13.66;46.23
70976;BME280;58635;51.198;6.010;2024-03-02T09:58:03;99971.31;;;13.71;46.26
70976;BME280;58635;51.198;6.010;2024-03-02T10:00:28;99967.78;;;13.77;46.25
70976;BME280;58635;51.198;6.010;2024-03-02T10:02:53;99971.59;;;13.86;46.22
70976;BME280;58635;51.198;6.010;2024-03-02T10:05:26;99967.81;;;13.94;45.89
70976;BME280;58635;51.198;6.010;2024-03-02T10:08:02;99973.09;;;13.99;45.92
70976;BME280;58635;51.198;6.010;2024-03-02T10:10:38;99972.16;;;14.05;45.81
70976;BME280;58635;51.198;6.010;2024-03-02T10:13:07;99967.03;;;14.10;45.84
70976;BME280;58635;51.198;6.010;2024-03-02T10:15:34;99967.66;;;14.17;45.80
70976;BME280;58635;51.198;6.010;2024-03-02T10:17:59;99973.75;;;14.23;45.80
70976;BME280;58635;51.198;6.010;2024-03-02T10:20:25;99966.31;;;14.31;45.43
70976;BME280;58635;51.198;6.010;2024-03-02T10:22:51;99969.78;;;14.37;45.31
70976;BME280;58635;51.198;6.010;2024-03-02T10:25:30;99965.22;;;14.44;45.05
70976;BME280;58635;51.198;6.010;2024-03-02T10:28:00;99969.00;;;14.53;45.05
70976;BME280;58635;51.198;6.010;2024-03-02T10:30:28;99964.69;;;14.59;44.84
70976;BME280;58635;51.198;6.010;2024-03-02T10:32:54;99965.53;;;14.65;43.98
70976;BME280;58635;51.198;6.010;2024-03-02T10:35:21;99950.22;;;14.68;44.19
70976;BME280;58635;51.198;6.010;2024-03-02T10:37:48;99953.38;;;14.70;44.23
70976;BME280;58635;51.198;6.010;2024-03-02T10:40:14;99949.50;;;14.73;44.03
70976;BME280;58635;51.198;6.010;2024-03-02T10:42:41;99952.66;;;14.75;43.91
70976;BME280;58635;51.198;6.010;2024-03-02T10:45:11;99943.56;;;14.77;44.06
70976;BME280;58635;51.198;6.010;2024-03-02T10:47:38;99948.84;;;14.82;44.01
70976;BME280;58635;51.198;6.010;2024-03-02T10:50:07;99948.13;;;14.87;43.65
70976;BME280;58635;51.198;6.010;2024-03-02T10:52:37;99947.09;;;14.88;43.43
70976;BME280;58635;51.198;6.010;2024-03-02T10:55:03;99950.47;;;14.88;43.55
70976;BME280;58635;51.198;6.010;2024-03-02T10:57:52;99948.97;;;14.93;42.91
70976;BME280;58635;51.198;6.010;2024-03-02T11:00:24;99941.16;;;14.93;43.14
70976;BME280;58635;51.198;6.010;2024-03-02T11:02:56;99932.38;;;14.99;42.54
70976;BME280;58635;51.198;6.010;2024-03-02T11:05:32;99935.28;;;15.02;42.58
70976;BME280;58635;51.198;6.010;2024-03-02T11:08:06;99924.84;;;15.02;42.55
70976;BME280;58635;51.198;6.010;2024-03-02T11:10:46;99930.38;;;15.06;42.39
70976;BME280;58635;51.198;6.010;2024-03-02T11:13:13;99926.78;;;15.12;42.36
70976;BME280;58635;51.198;6.010;2024-03-02T11:15:43;99930.00;;;15.19;41.93
70976;BME280;58635;51.198;6.010;2024-03-02T11:18:10;99918.06;;;15.23;42.09
70976;BME280;58635;51.198;6.010;2024-03-02T11:20:40;99918.91;;;15.29;41.87
70976;BME280;58635;51.198;6.010;2024-03-02T11:23:09;99917.91;;;15.35;41.80
70976;BME280;58635;51.198;6.010;2024-03-02T11:25:35;99911.19;;;15.39;41.83
70976;BME280;58635;51.198;6.010;2024-03-02T11:28:07;99915.41;;;15.45;41.59
70976;BME280;58635;51.198;6.010;2024-03-02T11:33:08;99902.50;;;15.55;41.07
70976;BME280;58635;51.198;6.010;2024-03-02T11:35:44;99910.06;;;15.57;40.72
70976;BME280;58635;51.198;6.010;2024-03-02T11:38:13;99913.44;;;15.57;41.07
70976;BME280;58635;51.198;6.010;2024-03-02T11:40:39;99914.78;;;15.60;41.09
70976;BME280;58635;51.198;6.010;2024-03-02T11:43:06;99915.41;;;15.67;40.93
70976;BME280;58635;51.198;6.010;2024-03-02T11:45:31;99909.69;;;15.70;40.84
70976;BME280;58635;51.198;6.010;2024-03-02T11:47:59;99909.44;;;15.71;40.90
70976;BME280;58635;51.198;6.010;2024-03-02T11:50:34;99903.47;;;15.76;40.53
70976;BME280;58635;51.198;6.010;2024-03-02T11:53:03;99895.88;;;15.74;40.80
70976;BME280;58635;51.198;6.010;2024-03-02T11:55:32;99887.59;;;15.77;40.83
70976;BME280;58635;51.198;6.010;2024-03-02T11:58:01;99877.97;;;15.83;40.42
70976;BME280;58635;51.198;6.010;2024-03-02T12:00:26;99883.78;;;15.90;40.15
70976;BME280;58635;51.198;6.010;2024-03-02T12:03:12;99870.75;;;15.95;40.13
70976;BME280;58635;51.198;6.010;2024-03-02T12:05:38;99876.31;;;16.04;40.24
70976;BME280;58635;51.198;6.010;2024-03-02T12:08:05;99867.78;;;16.19;40.13
70976;BME280;58635;51.198;6.010;2024-03-02T12:10:32;99861.03;;;16.28;39.47
70976;BME280;58635;51.198;6.010;2024-03-02T12:12:58;99857.19;;;16.35;39.31
70976;BME280;58635;51.198;6.010;2024-03-02T12:15:29;99850.94;;;16.42;39.09
70976;BME280;58635;51.198;6.010;2024-03-02T12:17:58;99850.72;;;16.48;38.90
70976;BME280;58635;51.198;6.010;2024-03-02T12:20:26;99850.75;;;16.58;38.93
70976;BME280;58635;51.198;6.010;2024-03-02T12:22:53;99840.38;;;16.69;38.86
70976;BME280;58635;51.198;6.010;2024-03-02T12:25:20;99842.75;;;16.80;38.98
70976;BME280;58635;51.198;6.010;2024-03-02T12:27:46;99844.63;;;16.95;38.97
70976;BME280;58635;51.198;6.010;2024-03-02T12:30:13;99836.31;;;17.08;38.71
70976;BME280;58635;51.198;6.010;2024-03-02T12:32:42;99838.38;;;17.16;38.73
70976;BME280;58635;51.198;6.010;2024-03-02T12:35:08;99836.84;;;17.25;38.68
70976;BME280;58635;51.198;6.010;2024-03-02T12:37:43;99841.03;;;17.32;38.41
70976;BME280;58635;51.198;6.010;2024-03-02T12:40:10;99838.69;;;17.35;38.15
70976;BME280;58635;51.198;6.010;2024-03-02T12:42:36;99833.19;;;17.32;38.39
70976;BME280;58635;51.198;6.010;2024-03-02T12:45:02;99827.69;;;17.33;38.20
70976;BME280;58635;51.198;6.010;2024-03-02T12:47:27;99830.31;;;17.38;38.34
70976;BME280;58635;51.198;6.010;2024-03-02T12:49:53;99826.94;;;17.43;38.51
70976;BME280;58635;51.198;6.010;2024-03-02T12:52:19;99820.38;;;17.50;38.18
70976;BME280;58635;51.198;6.010;2024-03-02T12:54:45;99817.50;;;17.57;38.44
70976;BME280;58635;51.198;6.010;2024-03-02T12:57:19;99823.25;;;17.64;38.26
70976;BME280;58635;51.198;6.010;2024-03-02T12:59:45;99816.19;;;17.65;38.27
70976;BME280;58635;51.198;6.010;2024-03-02T13:02:17;99813.06;;;17.68;37.99